»·PEaware :: N326CM KLAX-KSAN

N326CM :: KLAX-KSAN

FLIGHT INFORMATION

Flight Status: Arrived
Operator: Privately registered:
United States
More flights under this callsign
Pilot: Nigam P. (15980)
Aircraft: BEECH AIRCRAFT BARON
(BE58)
More flights by this aircraft type
Origin: KLAX Los Angeles Intl
United States
Destination: KSAN San Diego Intl-Lindbergh
United States
More flights between these airports :: More routes between these airports
Route: +
File this flight plan on PilotEdge
Remarks:
Altitude:
(Current/Filed)
0ft
Speed:
(Current/Filed)
0kts
Departed: 30-Dec-17 08:13 PM
Arrived: 30-Dec-17 09:20 PM
Distance/Time
Traveled:
95nm/1:07
Distance/Time
To Go:
Arrived

Flight Plot

Page will automatically refresh every two minutes.


Map Options




Map Legend


Flown Route
Filed Route
Departure Airport
Arrival Airport
Navaid (VOR, NDB)
Fix

Horizontal Profiles

Position Reports

Time Latitude Longitude Heading Altitude Ground
Speed
30-Dec-17 20:07 33.933413 -118.397557 329 129ft 0kts
30-Dec-17 20:08 33.933413 -118.397557 329 129ft 0kts
30-Dec-17 20:09 33.933413 -118.397557 329 129ft 0kts
30-Dec-17 20:10 33.933414 -118.397557 329 129ft 0kts
30-Dec-17 20:11 33.933414 -118.397558 329 129ft 0kts
30-Dec-17 20:12 33.933414 -118.397558 329 129ft 0kts
30-Dec-17 20:13 33.933947 -118.397934 329 129ft 15kts
30-Dec-17 20:14 33.935198 -118.392567 80 129ft 26kts
30-Dec-17 20:15 33.935997 -118.384659 82 129ft 23kts
30-Dec-17 20:16 33.936797 -118.382946 345 129ft 0kts
30-Dec-17 20:17 33.936800 -118.382947 345 129ft 0kts
30-Dec-17 20:18 33.936905 -118.382974 349 129ft 7kts
30-Dec-17 20:19 33.935503 -118.403960 262 387ft 119kts
30-Dec-17 20:20 33.930394 -118.448124 261 1245ft 135kts
30-Dec-17 20:21 33.924773 -118.489447 254 2513ft 112kts
30-Dec-17 20:22 33.893738 -118.496352 169 3031ft 168kts
30-Dec-17 20:23 33.843605 -118.485070 171 2999ft 190kts
30-Dec-17 20:24 33.790802 -118.474310 171 3000ft 193kts
30-Dec-17 20:25 33.737767 -118.463525 171 2999ft 193kts
30-Dec-17 20:26 33.686608 -118.453024 171 3467ft 178kts
30-Dec-17 20:27 33.652690 -118.416933 113 4062ft 178kts
30-Dec-17 20:28 33.634275 -118.361755 113 4670ft 177kts
30-Dec-17 20:29 33.616497 -118.306998 101 5269ft 175kts
30-Dec-17 20:30 33.618189 -118.248946 86 5867ft 173kts
30-Dec-17 20:31 33.621737 -118.191415 86 6463ft 171kts
30-Dec-17 20:32 33.620467 -118.134987 102 7057ft 168kts
30-Dec-17 20:33 33.603487 -118.083106 119 7506ft 173kts
30-Dec-17 20:34 33.573665 -118.034643 136 7508ft 185kts
30-Dec-17 20:38 33.933414 -118.397541 325 129ft 0kts
30-Dec-17 20:39 33.933414 -118.397541 325 129ft 0kts
30-Dec-17 20:40 33.933414 -118.397541 325 129ft 0kts
30-Dec-17 20:41 33.933415 -118.397541 325 129ft 0kts
30-Dec-17 20:42 33.933415 -118.397542 325 129ft 0kts
30-Dec-17 20:43 33.933415 -118.397542 325 129ft 0kts
30-Dec-17 20:44 33.933416 -118.397542 325 129ft 0kts
30-Dec-17 20:45 33.933416 -118.397542 325 129ft 0kts
30-Dec-17 20:46 33.933416 -118.397543 325 129ft 0kts
30-Dec-17 20:47 33.933417 -118.397543 325 129ft 0kts
30-Dec-17 20:48 33.934950 -118.394419 81 129ft 23kts
30-Dec-17 20:49 33.935808 -118.386405 82 129ft 28kts
30-Dec-17 20:50 33.937084 -118.383001 351 129ft 15kts
30-Dec-17 20:51 33.935339 -118.405998 265 415ft 121kts
30-Dec-17 20:52 33.928910 -118.452942 255 877ft 156kts
30-Dec-17 20:53 33.913595 -118.501080 209 1811ft 167kts
30-Dec-17 20:54 33.867048 -118.497715 171 2545ft 171kts
30-Dec-17 20:55 33.819775 -118.488097 171 3239ft 172kts
30-Dec-17 20:56 33.771071 -118.478025 171 3502ft 186kts
30-Dec-17 20:57 33.719228 -118.466454 158 3490ft 193kts
30-Dec-17 20:58 33.692028 -118.410821 113 3500ft 198kts
30-Dec-17 20:59 33.670418 -118.350056 114 3501ft 198kts
30-Dec-17 21:00 33.648006 -118.289457 115 3501ft 198kts
30-Dec-17 21:01 33.624919 -118.229507 116 3501ft 198kts
30-Dec-17 21:02 33.601386 -118.170777 117 3495ft 188kts
30-Dec-17 21:03 33.577199 -118.112926 118 3504ft 196kts
30-Dec-17 21:04 33.551813 -118.054654 119 3508ft 197kts
30-Dec-17 21:05 33.524965 -117.996963 124 3507ft 197kts
30-Dec-17 21:06 33.489006 -117.947791 137 3507ft 196kts
30-Dec-17 21:07 33.448207 -117.904178 140 3507ft 196kts
30-Dec-17 21:08 33.406729 -117.861915 141 3511ft 196kts
30-Dec-17 21:09 33.365148 -117.819931 141 3515ft 196kts
30-Dec-17 21:10 33.323281 -117.777770 141 3514ft 196kts
30-Dec-17 21:11 33.281330 -117.735592 141 3378ft 202kts
30-Dec-17 21:12 33.236472 -117.690571 140 2688ft 214kts
30-Dec-17 21:13 33.190503 -117.644475 140 1992ft 216kts
30-Dec-17 21:14 33.146567 -117.600442 140 1996ft 201kts
30-Dec-17 21:15 33.101947 -117.555832 139 1513ft 208kts
30-Dec-17 21:16 33.058542 -117.512469 139 1499ft 201kts
30-Dec-17 21:17 33.015939 -117.469993 139 1500ft 197kts
30-Dec-17 21:18 32.974006 -117.428220 139 1500ft 197kts
30-Dec-17 21:19 32.931969 -117.386386 138 1503ft 197kts
30-Dec-17 21:20 32.889757 -117.344438 139 1506ft 196kts
30-Dec-17 21:21 32.847984 -117.302937 141 1520ft 197kts
30-Dec-17 21:22 32.810592 -117.255563 118 1566ft 197kts
30-Dec-17 21:23 32.784310 -117.198332 124 1657ft 194kts
30-Dec-17 21:24 32.753307 -117.153611 154 1264ft 131kts
30-Dec-17 21:25 32.728070 -117.165158 260 526ft 85kts
30-Dec-17 21:26 32.733527 -117.189553 286 18ft 23kts
30-Dec-17 21:27 32.734218 -117.190104 8 18ft 0kts
30-Dec-17 21:28 32.733384 -117.185169 107 18ft 28kts
30-Dec-17 21:29 32.733451 -117.182036 202 18ft 0kts

Navigation Log

Ident Type
Flight plan parsing failed, navigation log unavailable